createdAt,value
2022-08-29T00:02:56.421Z,98004.44
2022-08-29T00:05:58.539Z,98009.13
2022-08-29T00:09:03.252Z,98006.72
2022-08-29T00:12:05.781Z,98013.66
2022-08-29T00:15:09.288Z,98010.81
2022-08-29T00:18:11.581Z,98014.28
2022-08-29T00:21:16.669Z,98025.97
2022-08-29T00:24:18.580Z,98025.56
2022-08-29T00:27:20.441Z,98020.63
2022-08-29T00:30:23.638Z,98032.09
2022-08-29T00:33:25.563Z,98028.00
2022-08-29T00:36:30.455Z,98019.78
2022-08-29T00:39:32.927Z,98017.13
2022-08-29T00:42:35.922Z,98020.00
2022-08-29T00:45:40.274Z,98018.78
2022-08-29T00:48:42.592Z,98022.44
2022-08-29T00:51:48.082Z,98021.03
2022-08-29T00:54:52.431Z,98021.44
2022-08-29T00:57:57.213Z,98028.63
2022-08-29T01:00:59.598Z,98022.28
2022-08-29T01:04:01.553Z,98022.88
2022-08-29T01:07:04.034Z,98030.44
2022-08-29T01:10:13.426Z,98023.50
2022-08-29T01:13:16.175Z,98025.13
2022-08-29T01:16:19.610Z,98028.81
2022-08-29T01:19:41.632Z,98029.44
2022-08-29T01:23:21.158Z,98027.59
2022-08-29T01:26:23.461Z,98026.97
2022-08-29T01:29:25.638Z,98032.09
2022-08-29T01:32:27.777Z,98034.13
2022-08-29T01:35:29.751Z,98033.31
2022-08-29T01:38:34.288Z,98036.63
2022-08-29T01:41:36.269Z,98034.94
2022-08-29T01:44:38.711Z,98040.50
2022-08-29T01:47:40.907Z,98032.91
2022-08-29T01:50:42.834Z,98032.69
2022-08-29T01:53:44.919Z,98043.75
2022-08-29T01:56:49.134Z,98035.75
2022-08-29T01:59:53.690Z,98043.97
2022-08-29T02:02:56.851Z,98039.22
2022-08-29T02:06:01.894Z,98033.31
2022-08-29T02:09:05.361Z,98038.22
2022-08-29T02:12:07.502Z,98035.56
2022-08-29T02:15:10.704Z,98034.75
2022-08-29T02:18:12.677Z,98033.31
2022-08-29T02:21:16.474Z,98029.22
2022-08-29T02:24:25.830Z,98036.97
2022-08-29T02:27:28.823Z,98034.50
2022-08-29T02:30:30.595Z,98030.22
2022-08-29T02:33:32.875Z,98023.88
2022-08-29T02:36:36.297Z,98021.22
2022-08-29T02:39:41.834Z,98036.50
2022-08-29T02:42:44.166Z,98024.03
2022-08-29T02:45:47.787Z,98022.19
2022-08-29T02:49:00.954Z,98028.09
2022-08-29T02:52:07.184Z,98028.31
2022-08-29T02:55:17.544Z,98035.03
2022-08-29T02:58:22.266Z,98029.09
2022-08-29T03:01:25.646Z,98029.91
2022-08-29T03:04:31.244Z,98031.94
2022-08-29T03:07:33.178Z,98035.00
2022-08-29T03:10:35.357Z,98034.19
2022-08-29T03:13:37.998Z,98036.84
2022-08-29T03:16:41.455Z,98037.06
2022-08-29T03:19:43.652Z,98036.28
2022-08-29T03:22:46.767Z,98044.25
2022-08-29T03:25:49.522Z,98048.34
2022-08-29T03:28:51.669Z,98048.97
2022-08-29T03:31:54.131Z,98055.09
2022-08-29T03:34:55.957Z,98056.75
2022-08-29T03:37:59.113Z,98058.78
2022-08-29T03:41:01.610Z,98050.41
2022-08-29T03:44:04.228Z,98045.06
2022-08-29T03:47:08.206Z,98045.84
2022-08-29T03:50:12.465Z,98051.34
2022-08-29T03:53:17.041Z,98047.44
2022-08-29T03:56:19.347Z,98056.19
2022-08-29T03:59:22.244Z,98058.47
2022-08-29T04:02:25.047Z,98060.13
2022-08-29T04:05:27.459Z,98068.50
2022-08-29T04:08:32.669Z,98073.59
2022-08-29T04:11:37.661Z,98081.16
2022-08-29T04:14:41.383Z,98082.56
2022-08-29T04:17:52.820Z,98092.19
2022-08-29T04:21:03.805Z,98091.53
2022-08-29T04:24:06.171Z,98091.53
2022-08-29T04:27:09.035Z,98091.13
2022-08-29T04:30:14.703Z,98096.03
2022-08-29T04:33:22.656Z,98106.22
2022-08-29T04:36:25.443Z,98105.44
2022-08-29T04:39:30.173Z,98102.25
2022-08-29T04:42:32.039Z,98103.72
2022-08-29T04:45:35.843Z,98104.38
2022-08-29T04:48:37.660Z,98112.09
2022-08-29T04:51:39.652Z,98107.56
2022-08-29T04:54:41.731Z,98120.38
2022-08-29T04:57:43.849Z,98119.72
2022-08-29T05:00:45.972Z,98118.91
2022-08-29T05:03:48.580Z,98126.16
2022-08-29T05:06:50.377Z,98132.81
2022-08-29T05:10:10.567Z,98134.44
2022-08-29T05:13:12.632Z,98132.03
2022-08-29T05:16:16.120Z,98136.09
2022-08-29T05:19:18.019Z,98132.22
2022-08-29T05:22:21.106Z,98138.16
2022-08-29T05:25:23.238Z,98135.50
2022-08-29T05:28:27.528Z,98135.50
2022-08-29T05:31:29.374Z,98139.63
2022-08-29T05:34:34.703Z,98142.69
2022-08-29T05:37:37.362Z,98142.47
2022-08-29T05:40:39.522Z,98140.44
2022-08-29T05:43:41.740Z,98148.41
2022-08-29T05:46:43.844Z,98158.28
2022-08-29T05:49:47.201Z,98159.50
2022-08-29T05:52:49.259Z,98152.72
2022-08-29T05:55:51.310Z,98159.72
2022-08-29T05:58:56.213Z,98163.59
2022-08-29T06:01:58.509Z,98173.84
2022-08-29T06:05:01.212Z,98172.59
2022-08-29T06:08:03.952Z,98174.66
2022-08-29T06:11:06.105Z,98170.78
2022-08-29T06:14:08.122Z,98175.09
2022-08-29T06:17:10.342Z,98174.03
2022-08-29T06:20:12.784Z,98180.81
2022-08-29T06:23:14.809Z,98194.34
2022-08-29T06:26:17.715Z,98191.47
2022-08-29T06:29:19.730Z,98194.94
2022-08-29T06:32:21.538Z,98201.91
2022-08-29T06:35:23.679Z,98191.84
2022-08-29T06:38:26.208Z,98194.25
2022-08-29T06:41:28.977Z,98195.91
2022-08-29T06:44:35.011Z,98191.22
2022-08-29T06:47:37.314Z,98187.97
2022-08-29T06:50:45.317Z,98186.72
2022-08-29T06:53:47.912Z,98194.38
2022-08-29T06:56:58.022Z,98187.16
2022-08-29T06:59:59.912Z,98190.03
2022-08-29T07:03:05.567Z,98189.94
2022-08-29T07:06:08.818Z,98196.53
2022-08-29T07:09:13.048Z,98198.38
2022-08-29T07:12:15.131Z,98219.09
2022-08-29T07:15:17.624Z,98215.63
2022-08-29T07:18:19.969Z,98212.94
2022-08-29T07:21:24.755Z,98210.53
2022-08-29T07:24:28.390Z,98224.94
2022-08-29T07:27:30.376Z,98228.63
2022-08-29T07:30:33.397Z,98225.53
2022-08-29T07:33:36.122Z,98228.84
2022-08-29T07:36:38.629Z,98222.44
2022-08-29T07:39:40.680Z,98226.97
2022-08-29T07:42:43.694Z,98236.47
2022-08-29T07:45:45.654Z,98224.91
2022-08-29T07:48:51.411Z,98243.84
2022-08-29T07:51:55.003Z,98238.28
2022-08-29T07:54:57.332Z,98233.91
2022-08-29T07:57:59.687Z,98239.84
2022-08-29T08:01:01.961Z,98242.63
2022-08-29T08:04:04.865Z,98245.50
2022-08-29T08:07:13.794Z,98251.44
2022-08-29T08:10:19.961Z,98255.53
2022-08-29T08:13:21.980Z,98269.94
2022-08-29T08:16:26.391Z,98251.13
2022-08-29T08:19:28.403Z,98247.06
2022-08-29T08:22:30.450Z,98242.47
2022-08-29T08:25:32.587Z,98248.78
2022-08-29T08:28:35.034Z,98246.06
2022-08-29T08:31:37.200Z,98248.63
2022-08-29T08:34:39.097Z,98248.00
2022-08-29T08:37:41.227Z,98263.44
2022-08-29T08:40:46.650Z,98252.41
2022-08-29T08:44:02.513Z,98266.38
2022-08-29T08:47:07.409Z,98265.72
2022-08-29T08:50:13.062Z,98258.34
2022-08-29T08:53:35.433Z,98260.16
2022-08-29T08:56:41.190Z,98264.66
2022-08-29T08:59:52.913Z,98260.44
2022-08-29T09:03:00.084Z,98261.84
2022-08-29T09:06:27.206Z,98260.88
2022-08-29T09:09:57.585Z,98268.66
2022-08-29T09:13:06.661Z,98262.13
2022-08-29T09:16:25.181Z,98259.78
2022-08-29T09:19:27.615Z,98255.97
2022-08-29T09:22:32.851Z,98259.47
2022-08-29T09:25:36.676Z,98258.63
2022-08-29T09:28:41.321Z,98265.41
2022-08-29T09:31:43.851Z,98267.03
2022-08-29T09:35:07.875Z,98249.78
2022-08-29T09:38:25.371Z,98259.53
2022-08-29T09:41:28.496Z,98259.16
2022-08-29T09:44:35.075Z,98268.69
2022-08-29T09:47:37.548Z,98264.50
2022-08-29T09:50:40.201Z,98262.78
2022-08-29T09:53:43.648Z,98266.94
2022-08-29T09:57:10.987Z,98264.94
2022-08-29T10:00:17.273Z,98265.69
2022-08-29T10:03:22.355Z,98265.50
2022-08-29T10:06:26.866Z,98273.75
2022-08-29T10:09:29.143Z,98265.63
2022-08-29T10:12:38.639Z,98266.72
2022-08-29T10:16:02.825Z,98255.56
2022-08-29T10:19:14.071Z,98255.34
2022-08-29T10:22:36.023Z,98251.19
2022-08-29T10:25:39.595Z,98247.00
2022-08-29T10:28:51.643Z,98232.84
2022-08-29T10:32:26.027Z,98234.81
2022-08-29T10:35:32.815Z,98241.44
2022-08-29T10:38:56.821Z,98225.09
2022-08-29T10:42:16.350Z,98229.56
2022-08-29T10:45:40.464Z,98227.06
2022-08-29T10:49:07.303Z,98235.88
2022-08-29T10:52:13.618Z,98234.72
2022-08-29T10:55:19.942Z,98228.56
2022-08-29T10:58:31.855Z,98229.56
2022-08-29T11:01:41.114Z,98231.91
2022-08-29T11:04:51.524Z,98229.44
2022-08-29T11:08:02.296Z,98225.06
2022-08-29T11:11:06.996Z,98228.28
2022-08-29T11:14:25.464Z,98211.81
2022-08-29T11:17:31.993Z,98219.13
2022-08-29T11:20:41.387Z,98220.25
2022-08-29T11:23:48.107Z,98229.81
2022-08-29T11:27:09.466Z,98219.41
2022-08-29T11:30:18.554Z,98218.03
2022-08-29T11:33:57.244Z,98217.00
2022-08-29T11:37:37.653Z,98206.25
2022-08-29T11:44:35.431Z,98203.03
2022-08-29T11:47:46.155Z,98202.06
2022-08-29T11:50:49.643Z,98201.19
2022-08-29T11:53:51.801Z,98211.03
2022-08-29T11:57:03.713Z,98206.34
2022-08-29T12:00:44.100Z,98195.19
2022-08-29T12:03:47.188Z,98192.22
2022-08-29T12:06:54.016Z,98190.69
2022-08-29T12:09:57.560Z,98197.97
2022-08-29T12:13:05.758Z,98180.44
2022-08-29T12:16:12.891Z,98186.69
2022-08-29T12:19:49.954Z,98201.00
2022-08-29T12:22:52.220Z,98192.53
2022-08-29T12:26:16.306Z,98189.13
2022-08-29T12:29:41.166Z,98184.28
2022-08-29T12:33:10.974Z,98184.88
2022-08-29T12:36:19.393Z,98191.16
2022-08-29T12:39:42.992Z,98182.91
2022-08-29T12:42:58.848Z,98171.50
2022-08-29T12:46:03.684Z,98170.34
2022-08-29T12:49:25.798Z,98170.34
2022-08-29T12:52:38.158Z,98166.59
2022-08-29T12:55:44.678Z,98169.66
2022-08-29T12:58:53.459Z,98162.75
2022-08-29T13:01:58.579Z,98163.56
2022-08-29T13:05:01.539Z,98149.34
2022-08-29T13:08:21.501Z,98154.94
2022-08-29T13:11:26.568Z,98155.25
2022-08-29T13:14:28.672Z,98141.88
2022-08-29T13:17:37.819Z,98147.63
2022-08-29T13:20:41.812Z,98150.19
2022-08-29T13:23:47.939Z,98146.94
2022-08-29T13:27:04.717Z,98149.03
2022-08-29T13:30:09.602Z,98143.25
2022-08-29T13:33:34.810Z,98150.78
2022-08-29T13:36:59.491Z,98139.66
2022-08-29T13:40:37.284Z,98148.69
2022-08-29T13:43:43.983Z,98150.50
2022-08-29T13:46:47.875Z,98141.34
2022-08-29T13:49:50.498Z,98148.81
2022-08-29T13:52:55.221Z,98141.63
2022-08-29T13:55:59.333Z,98134.03
2022-08-29T13:59:01.605Z,98133.56
2022-08-29T14:02:09.318Z,98141.34
2022-08-29T14:05:13.921Z,98144.06
2022-08-29T14:08:16.389Z,98140.53
2022-08-29T14:11:19.032Z,98140.91
2022-08-29T14:14:21.613Z,98141.53
2022-08-29T14:17:24.275Z,98135.00
2022-08-29T14:20:26.779Z,98145.72
2022-08-29T14:23:31.978Z,98141.44
2022-08-29T14:26:33.937Z,98137.13
2022-08-29T14:29:36.536Z,98138.47
2022-08-29T14:32:38.932Z,98135.75
2022-08-29T14:35:43.406Z,98133.13
2022-08-29T14:38:45.408Z,98135.88
2022-08-29T14:41:47.839Z,98132.53
2022-08-29T14:44:49.872Z,98133.75
2022-08-29T14:47:51.827Z,98133.94
2022-08-29T14:50:56.394Z,98129.91
2022-08-29T14:54:01.291Z,98131.84
2022-08-29T14:57:03.571Z,98130.53
2022-08-29T15:00:34.430Z,98122.00
2022-08-29T15:03:37.582Z,98124.00
2022-08-29T15:06:39.902Z,98125.84
2022-08-29T15:09:44.350Z,98124.47
2022-08-29T15:12:46.478Z,98118.53
2022-08-29T15:15:48.477Z,98118.41
2022-08-29T15:19:33.743Z,98122.91
2022-08-29T15:22:13.149Z,98117.28
2022-08-29T15:25:15.387Z,98127.53
2022-08-29T15:28:17.523Z,98120.13
2022-08-29T15:31:22.647Z,98114.31
2022-08-29T15:34:26.157Z,98120.50
2022-08-29T15:37:28.251Z,98118.28
2022-08-29T15:40:30.437Z,98111.34
2022-08-29T15:43:32.664Z,98109.63
2022-08-29T15:46:37.880Z,98101.72
2022-08-29T15:49:40.275Z,98107.59
2022-08-29T15:52:42.830Z,98107.09
2022-08-29T15:55:45.099Z,98108.59
2022-08-29T15:58:48.596Z,98108.41
2022-08-29T16:01:52.553Z,98108.91
2022-08-29T17:26:20.636Z,98156.06
2022-08-29T17:29:29.676Z,98156.81
2022-08-29T17:32:32.601Z,98161.44
2022-08-29T17:35:35.337Z,98163.31
2022-08-29T17:38:43.695Z,98157.91
2022-08-29T17:41:50.666Z,98166.59
2022-08-29T17:44:52.957Z,98162.50
2022-08-29T17:47:56.921Z,98164.44
2022-08-29T17:50:59.674Z,98182.72
2022-08-29T17:54:05.427Z,98182.50
2022-08-29T17:57:08.474Z,98193.63
2022-08-29T18:00:14.154Z,98195.72
2022-08-29T18:03:18.754Z,98200.84
2022-08-29T18:06:21.745Z,98205.56
2022-08-29T18:09:25.211Z,98207.66
2022-08-29T18:12:27.494Z,98207.03
2022-08-29T18:15:30.136Z,98207.03
2022-08-29T18:18:38.133Z,98216.06
2022-08-29T18:21:45.250Z,98213.59
2022-08-29T18:24:49.561Z,98218.53
2022-08-29T18:27:54.515Z,98224.06
2022-08-29T18:30:59.312Z,98227.16
2022-08-29T18:34:02.491Z,98223.44
2022-08-29T18:37:07.540Z,98225.06
2022-08-29T18:40:11.657Z,98238.63
2022-08-29T18:43:16.271Z,98235.31
2022-08-29T18:46:20.160Z,98235.31
2022-08-29T18:49:46.271Z,98241.88
2022-08-29T18:52:52.672Z,98243.13
2022-08-29T18:55:55.667Z,98249.22
2022-08-29T18:58:59.069Z,98247.19
2022-08-29T19:02:01.745Z,98256.22
2022-08-29T19:05:04.801Z,98262.34
2022-08-29T19:08:09.169Z,98266.41
2022-08-29T19:11:11.764Z,98260.47
2022-08-29T19:14:14.343Z,98266.19
2022-08-29T19:17:17.790Z,98260.72
2022-08-29T19:20:43.003Z,98266.88
2022-08-29T19:23:52.406Z,98270.34
2022-08-29T19:26:59.511Z,98269.31
2022-08-29T19:30:05.473Z,98272.81
2022-08-29T19:33:10.373Z,98280.81
2022-08-29T19:36:12.874Z,98275.28
2022-08-29T19:39:16.253Z,98274.88
2022-08-29T19:42:19.201Z,98283.22
2022-08-29T19:45:22.023Z,98290.50
2022-08-29T19:48:25.069Z,98288.66
2022-08-29T19:51:33.247Z,98296.63
2022-08-29T19:54:35.486Z,98296.97
2022-08-29T19:57:39.791Z,98299.44
2022-08-29T20:00:45.158Z,98308.13
2022-08-29T20:03:48.141Z,98302.81
2022-08-29T20:06:50.771Z,98292.50
2022-08-29T20:09:53.887Z,98294.75
2022-08-29T20:12:57.831Z,98301.31
2022-08-29T20:16:00.321Z,98289.94
2022-08-29T20:19:05.017Z,98292.91
2022-08-29T20:22:07.552Z,98302.25
2022-08-29T20:25:10.871Z,98299.34
2022-08-29T20:28:15.694Z,98303.69
2022-08-29T20:31:21.909Z,98300.19
2022-08-29T20:34:29.863Z,98317.56
2022-08-29T20:37:32.225Z,98316.53
2022-08-29T20:40:39.781Z,98315.69
2022-08-29T20:43:41.844Z,98308.97
2022-08-29T20:46:45.810Z,98309.75
2022-08-29T20:49:49.490Z,98314.44
2022-08-29T20:52:54.336Z,98318.88
2022-08-29T20:55:59.035Z,98318.25
2022-08-29T20:59:02.230Z,98322.31
2022-08-29T21:02:05.269Z,98326.38
2022-08-29T21:05:25.902Z,98329.69
2022-08-29T21:08:29.937Z,98329.19
2022-08-29T21:11:32.288Z,98324.06
2022-08-29T21:14:34.704Z,98321.84
2022-08-29T21:17:36.785Z,98322.38
2022-08-29T21:20:54.118Z,98319.06
2022-08-29T21:23:56.464Z,98319.44
2022-08-29T21:26:58.979Z,98323.38
2022-08-29T21:30:01.246Z,98316.88
2022-08-29T21:33:03.879Z,98321.59
2022-08-29T21:36:10.987Z,98314.72
2022-08-29T21:39:19.667Z,98311.94
2022-08-29T21:42:30.691Z,98306.53
2022-08-29T21:45:34.673Z,98311.44
2022-08-29T21:48:36.940Z,98303.97
2022-08-29T21:51:39.114Z,98311.00
2022-08-29T21:54:40.968Z,98319.31
2022-08-29T21:57:51.822Z,98320.34
2022-08-29T22:00:54.093Z,98318.97
2022-08-29T22:03:57.980Z,98312.44
2022-08-29T22:07:01.797Z,98310.41
2022-08-29T22:10:05.317Z,98304.28
2022-08-29T22:13:10.216Z,98306.22
2022-08-29T22:16:28.930Z,98306.03
2022-08-29T22:19:32.159Z,98298.72
2022-08-29T22:22:35.214Z,98294.59
2022-08-29T22:25:37.760Z,98299.13
2022-08-29T22:28:40.567Z,98301.75
2022-08-29T22:31:43.669Z,98307.28
2022-08-29T22:34:45.870Z,98300.22
2022-08-29T22:37:47.901Z,98295.63
2022-08-29T22:40:50.043Z,98303.81
2022-08-29T22:44:37.690Z,98299.22
2022-08-29T22:47:19.406Z,98290.56
2022-08-29T22:50:23.788Z,98294.22
2022-08-29T22:53:26.124Z,98292.03
2022-08-29T22:56:27.923Z,98294.25
2022-08-29T22:59:30.309Z,98284.16
2022-08-29T23:02:32.903Z,98295.22
2022-08-29T23:05:34.995Z,98285.63
2022-08-29T23:08:37.339Z,98291.13
2022-08-29T23:11:39.898Z,98298.88
2022-08-29T23:14:44.230Z,98292.66
2022-08-29T23:17:46.586Z,98295.09
2022-08-29T23:20:48.514Z,98290.28
2022-08-29T23:23:51.774Z,98288.00
2022-08-29T23:26:53.716Z,98295.00
2022-08-29T23:29:56.562Z,98287.63
2022-08-29T23:33:03.008Z,98285.97
2022-08-29T23:36:05.728Z,98284.69
2022-08-29T23:39:07.966Z,98286.97
2022-08-29T23:42:10.262Z,98285.53
2022-08-29T23:45:12.510Z,98281.09
2022-08-29T23:48:15.293Z,98277.00
2022-08-29T23:51:20.017Z,98279.47
2022-08-29T23:54:27.107Z,98282.84
2022-08-29T23:57:29.063Z,98286.78
